Friendship, Indiana
Current Conditions -  °F | °C
As of 3:52 PM on Thursday 20 Nov 2014 (Local Time) from KCVG Reporting Station
Scattered Clouds Scattered Clouds  
Wind Chill: 23°   Ceiling: Unl
Heat Index: 31°   Visibility: 10mi
Dew Point: 13°   Wind: 9mph
Humidity: 47%   Direction: 240°WSW
Pressure: 30.13"   Gusts: NA
Location:  38.97°N, 85.15°W
Report Text: KCVG 202052Z 24008KT 10SM FEW040 SCT200 M01/M11 A3013 RMK AO2 SLP211 T10061106 55003
Loading
Personal Weather Stations






























Interactive Weather Map New forecast layout! Learn more

10-Day Weather Forecast

Advertisements
Track Severe Weather on mobile